createdAt,value
2022-11-15T00:00:12.569Z,6.9
2022-11-15T00:02:14.755Z,6.9
2022-11-15T00:04:16.725Z,7
2022-11-15T00:06:22.060Z,7
2022-11-15T00:08:24.134Z,7
2022-11-15T00:10:26.230Z,6.9
2022-11-15T00:18:34.571Z,6.9
2022-11-15T00:20:39.916Z,7
2022-11-15T00:24:44.104Z,7
2022-11-15T00:26:46.173Z,6.9
2022-11-15T00:34:57.748Z,7
2022-11-15T00:37:01.378Z,7
2022-11-15T00:39:03.423Z,7
2022-11-15T00:40:06.092Z,7.1
2022-11-15T00:42:08.179Z,7
2022-11-15T00:44:10.268Z,7.1
2022-11-15T00:46:12.351Z,7
2022-11-15T00:48:17.704Z,7.1
2022-11-15T00:50:19.802Z,7.1
2022-11-15T00:54:23.989Z,7.1
2022-11-15T00:56:26.047Z,7.1
2022-11-15T01:00:30.317Z,7.2
2022-11-15T01:02:35.575Z,7.1
2022-11-15T01:04:37.652Z,7.2
2022-11-15T01:06:39.774Z,7.2
2022-11-15T01:08:41.830Z,7.2
2022-11-15T01:10:43.951Z,7.3
2022-11-15T01:12:46.021Z,7.3
2022-11-15T01:14:48.109Z,7.4
2022-11-15T01:16:53.449Z,7.4
2022-11-15T01:18:55.557Z,7.4
2022-11-15T01:29:06.044Z,7.4
2022-11-15T01:33:13.444Z,7.5
2022-11-15T01:35:15.550Z,7.5
2022-11-15T01:38:20.298Z,7.5
2022-11-15T01:40:22.403Z,7.5
2022-11-15T01:42:24.516Z,7.5
2022-11-15T01:44:30.015Z,7.5
2022-11-15T01:46:31.941Z,7.6
2022-11-15T01:48:34.045Z,7.6
2022-11-15T01:50:36.152Z,7.6
2022-11-15T01:52:38.231Z,7.6
2022-11-15T01:54:40.498Z,7.5
2022-11-15T01:56:42.434Z,7.7
2022-11-15T02:00:49.957Z,7.7
2022-11-15T02:04:54.060Z,7.7
2022-11-15T02:06:56.243Z,7.7
2022-11-15T02:08:58.285Z,7.7
2022-11-15T02:11:00.420Z,7.8
2022-11-15T02:13:05.723Z,7.8
2022-11-15T02:15:08.004Z,7.8
2022-11-15T02:17:09.942Z,7.8
2022-11-15T02:19:12.034Z,7.8
2022-11-15T02:21:14.163Z,7.8
2022-11-15T02:23:16.257Z,7.8
2022-11-15T02:25:18.381Z,7.8
2022-11-15T02:27:23.696Z,7.9
2022-11-15T02:29:25.818Z,7.9
2022-11-15T02:33:56.774Z,8
2022-11-15T02:35:58.874Z,8
2022-11-15T02:38:00.988Z,8
2022-11-15T02:40:06.327Z,8
2022-11-15T02:42:08.436Z,8.1
2022-11-15T02:44:10.559Z,8
2022-11-15T02:46:12.650Z,8.1
2022-11-15T02:48:14.748Z,8.1
2022-11-15T02:50:16.875Z,8.1
2022-11-15T02:52:18.967Z,8.2
2022-11-15T02:54:24.323Z,8.2
2022-11-15T02:56:26.409Z,8.2
2022-11-15T02:58:28.521Z,8.2
2022-11-15T03:00:30.725Z,8.3
2022-11-15T03:02:32.766Z,8.4
2022-11-15T03:04:34.871Z,8.3
2022-11-15T03:06:36.967Z,8.3
2022-11-15T03:08:42.312Z,8.4
2022-11-15T03:10:44.423Z,8.4
2022-11-15T03:12:46.532Z,8.4
2022-11-15T03:14:48.655Z,8.4
2022-11-15T03:18:52.890Z,8.5
2022-11-15T03:20:54.997Z,8.5
2022-11-15T03:28:07.264Z,8.6
2022-11-15T03:30:09.380Z,8.5
2022-11-15T03:34:13.637Z,8.6
2022-11-15T03:36:18.969Z,8.6
2022-11-15T03:38:21.126Z,8.7
2022-11-15T03:40:23.206Z,8.7
2022-11-15T03:42:25.304Z,8.7
2022-11-15T03:44:27.438Z,8.7
2022-11-15T03:46:29.556Z,8.7
2022-11-15T03:50:37.031Z,8.8
2022-11-15T03:52:39.161Z,8.8
2022-11-15T03:56:43.417Z,8.8
2022-11-15T03:58:45.528Z,8.9
2022-11-15T04:00:47.672Z,9
2022-11-15T04:02:49.771Z,9
2022-11-15T04:04:55.139Z,9
2022-11-15T04:06:57.329Z,9
2022-11-15T04:08:59.408Z,9.1
2022-11-15T04:13:03.652Z,9.1
2022-11-15T04:15:05.788Z,9.3
2022-11-15T04:19:13.274Z,9.6
2022-11-15T04:23:17.529Z,9.6
2022-11-15T04:24:20.198Z,9.7
2022-11-15T04:26:22.354Z,9.7
2022-11-15T04:28:24.482Z,9.8
2022-11-15T04:30:26.605Z,9.8
2022-11-15T04:32:31.967Z,9.8
2022-11-15T04:34:34.117Z,9.9
2022-11-15T04:36:36.256Z,9.8
2022-11-15T04:38:38.387Z,9.9
2022-11-15T04:40:40.551Z,9.9
2022-11-15T04:42:42.695Z,9.9
2022-11-15T04:44:44.853Z,9.9
2022-11-15T04:46:50.197Z,10
2022-11-15T04:48:57.985Z,10
2022-11-15T04:50:54.523Z,10
2022-11-15T04:52:56.637Z,10
2022-11-15T04:55:01.397Z,10
2022-11-15T04:57:00.939Z,10
2022-11-15T04:59:03.069Z,10
2022-11-15T05:01:08.523Z,10
2022-11-15T05:03:10.749Z,10
2022-11-15T05:05:12.745Z,10.1
2022-11-15T05:07:14.969Z,10
2022-11-15T05:15:26.706Z,10
2022-11-15T05:17:28.741Z,10
2022-11-15T05:20:33.581Z,10.1
2022-11-15T05:22:35.718Z,10.1
2022-11-15T05:24:37.876Z,10.1
2022-11-15T05:28:45.430Z,10.1
2022-11-15T05:30:47.565Z,10.2
2022-11-15T05:32:49.711Z,10.3
2022-11-15T05:34:51.864Z,10.3
2022-11-15T05:36:54.008Z,10.3
2022-11-15T05:38:56.159Z,10.4
2022-11-15T05:40:58.329Z,10.3
2022-11-15T05:43:03.709Z,10.5
2022-11-15T05:45:05.850Z,10.5
2022-11-15T05:47:08.017Z,10.4
2022-11-15T05:51:12.260Z,10.4
2022-11-15T05:53:14.407Z,10.4
2022-11-15T05:55:16.563Z,10.4
2022-11-15T05:57:21.932Z,10.3
2022-11-15T05:59:24.068Z,10.3
2022-11-15T06:01:26.210Z,10.4
2022-11-15T06:03:28.552Z,10.4
2022-11-15T06:05:30.526Z,10.5
2022-11-15T06:07:32.767Z,10.4
2022-11-15T06:09:34.843Z,10.5
2022-11-15T06:11:40.236Z,10.4
2022-11-15T06:15:44.512Z,10.4
2022-11-15T06:18:13.267Z,10.4
2022-11-15T06:20:15.430Z,10.5
2022-11-15T06:22:17.575Z,10.5
2022-11-15T06:24:22.964Z,10.6
2022-11-15T06:26:25.128Z,10.6
2022-11-15T06:32:33.153Z,10.5
2022-11-15T06:38:42.740Z,10.5
2022-11-15T06:40:44.893Z,10.6
2022-11-15T06:42:47.056Z,10.6
2022-11-15T06:44:49.227Z,10.6
2022-11-15T06:46:51.367Z,10.6
2022-11-15T06:48:53.531Z,10.5
2022-11-15T06:50:55.698Z,10.5
2022-11-15T06:53:01.012Z,10.5
2022-11-15T06:55:03.160Z,10.5
2022-11-15T06:57:05.309Z,10.5
2022-11-15T06:59:07.471Z,10.5
2022-11-15T07:01:09.683Z,10.5
2022-11-15T07:03:11.797Z,10.6
2022-11-15T07:05:13.948Z,10.6
2022-11-15T07:07:19.438Z,10.5
2022-11-15T07:11:23.692Z,10.5
2022-11-15T07:12:26.373Z,10.6
2022-11-15T07:14:28.543Z,10.6
2022-11-15T07:16:30.681Z,10.5
2022-11-15T07:18:32.844Z,10.4
2022-11-15T07:20:38.242Z,10.5
2022-11-15T07:22:40.403Z,10.6
2022-11-15T07:24:42.537Z,10.6
2022-11-15T07:26:44.690Z,10.6
2022-11-15T07:28:46.854Z,10.5
2022-11-15T07:30:49.020Z,10.6
2022-11-15T07:32:51.170Z,10.6
2022-11-15T07:34:56.448Z,10.6
2022-11-15T07:36:58.490Z,10.6
2022-11-15T07:39:00.548Z,10.6
2022-11-15T07:41:02.700Z,10.6
2022-11-15T07:43:04.873Z,10.6
2022-11-15T07:45:07.043Z,10.6
2022-11-15T07:47:09.146Z,10.5
2022-11-15T07:49:14.464Z,10.5
2022-11-15T07:51:16.602Z,10.6
2022-11-15T07:53:18.636Z,10.5
2022-11-15T07:55:20.703Z,10.6
2022-11-15T07:57:22.833Z,10.6
2022-11-15T07:59:25.015Z,10.6
2022-11-15T08:01:27.276Z,10.6
2022-11-15T08:03:32.836Z,10.6
2022-11-15T08:05:34.716Z,10.6
2022-11-15T08:07:36.910Z,10.6
2022-11-15T08:10:41.725Z,10.6
2022-11-15T08:12:43.942Z,10.6
2022-11-15T08:14:46.030Z,10.7
2022-11-15T08:16:51.401Z,10.7
2022-11-15T08:18:53.558Z,10.7
2022-11-15T08:20:55.730Z,10.6
2022-11-15T08:22:57.868Z,10.7
2022-11-15T08:24:59.921Z,10.8
2022-11-15T08:27:02.130Z,10.8
2022-11-15T08:29:04.114Z,10.8
2022-11-15T08:31:09.507Z,10.7
2022-11-15T08:33:11.639Z,10.8
2022-11-15T08:35:13.703Z,10.8
2022-11-15T08:37:15.840Z,10.9
2022-11-15T08:39:18.080Z,10.9
2022-11-15T08:41:20.047Z,10.9
2022-11-15T08:43:22.196Z,10.9
2022-11-15T08:45:27.600Z,10.9
2022-11-15T08:47:29.762Z,11
2022-11-15T08:49:31.946Z,11
2022-11-15T08:51:33.965Z,11
2022-11-15T08:55:38.307Z,11
2022-11-15T08:57:40.426Z,11
2022-11-15T09:01:47.920Z,11
2022-11-15T09:03:50.038Z,11
2022-11-15T09:04:52.759Z,11.1
2022-11-15T09:06:55.060Z,11.1
2022-11-15T09:08:57.080Z,11
2022-11-15T09:10:59.256Z,11
2022-11-15T09:13:04.633Z,11.1
2022-11-15T09:15:06.666Z,11
2022-11-15T09:17:08.737Z,11.2
2022-11-15T09:19:12.085Z,11.1
2022-11-15T09:21:13.051Z,11.1
2022-11-15T09:23:15.231Z,11.1
2022-11-15T09:25:17.397Z,11.2
2022-11-15T09:27:22.777Z,11.3
2022-11-15T09:29:24.835Z,11.3
2022-11-15T09:31:26.987Z,11.3
2022-11-15T09:33:29.514Z,11.4
2022-11-15T09:35:31.226Z,11.4
2022-11-15T09:37:33.381Z,11.5
2022-11-15T09:43:43.013Z,11.8
2022-11-15T09:45:44.944Z,12
2022-11-15T09:47:47.136Z,12
2022-11-15T09:54:37.416Z,12
2022-11-15T09:55:58.709Z,12.3
2022-11-15T09:58:00.899Z,12.2
2022-11-15T10:00:30.664Z,12.2
2022-11-15T10:02:31.714Z,12.2
2022-11-15T10:04:33.768Z,12.3
2022-11-15T10:06:35.839Z,12.4
2022-11-15T10:10:43.128Z,12.4
2022-11-15T10:12:45.306Z,12.3
2022-11-15T10:14:53.192Z,12.3
2022-11-15T10:16:49.419Z,12.2
2022-11-15T10:18:51.519Z,12.2
2022-11-15T10:20:53.680Z,12.3
2022-11-15T10:22:58.882Z,12.5
2022-11-15T10:25:00.948Z,12.6
2022-11-15T10:27:03.049Z,12.5
2022-11-15T10:29:05.217Z,12.4
2022-11-15T10:33:09.380Z,12.2
2022-11-15T10:35:11.436Z,12.2
2022-11-15T10:37:16.747Z,12.3
2022-11-15T10:39:18.829Z,12.3
2022-11-15T10:43:23.068Z,12.1
2022-11-15T10:45:25.148Z,12
2022-11-15T10:47:27.425Z,12
2022-11-15T10:49:29.330Z,12.2
2022-11-15T10:51:34.643Z,12.1
2022-11-15T10:53:36.735Z,12.2
2022-11-15T10:55:38.914Z,12.2
2022-11-15T10:56:41.629Z,12.2
2022-11-15T10:58:43.800Z,12.2
2022-11-15T11:00:45.877Z,12.1
2022-11-15T11:02:48.085Z,12.1
2022-11-15T11:04:53.367Z,12
2022-11-15T11:06:55.610Z,12.1
2022-11-15T11:08:57.635Z,12.2
2022-11-15T11:11:03.123Z,12.3
2022-11-15T11:13:01.899Z,12.6
2022-11-15T11:15:03.859Z,12.6
2022-11-15T11:17:05.901Z,12.6
2022-11-15T11:19:11.140Z,12.5
2022-11-15T11:21:13.200Z,12.4
2022-11-15T11:23:15.374Z,12.3
2022-11-15T11:25:17.559Z,12.3
2022-11-15T11:27:19.742Z,12.3
2022-11-15T11:29:21.816Z,12.6
2022-11-15T11:31:23.878Z,12.8
2022-11-15T11:33:29.196Z,12.8
2022-11-15T11:35:31.272Z,12.6
2022-11-15T11:37:33.333Z,12.8
2022-11-15T11:39:35.408Z,12.8
2022-11-15T11:41:37.498Z,13.1
2022-11-15T11:45:47.099Z,13.1
2022-11-15T11:47:47.073Z,13.5
2022-11-15T11:49:49.255Z,13.4
2022-11-15T11:51:51.411Z,13.7
2022-11-15T11:52:54.010Z,14
2022-11-15T11:54:56.116Z,14.1
2022-11-15T11:56:58.179Z,13.8
2022-11-15T11:59:00.255Z,13.3
2022-11-15T12:01:11.401Z,13.3
2022-11-15T12:03:07.719Z,13.4
2022-11-15T12:05:09.625Z,13.6
2022-11-15T12:07:11.767Z,13.7
2022-11-15T12:09:13.831Z,13.7
2022-11-15T12:11:15.871Z,13.5
2022-11-15T12:13:17.933Z,13.5
2022-11-15T12:15:23.299Z,13
2022-11-15T12:17:25.461Z,13.1
2022-11-15T12:23:33.318Z,13.2
2022-11-15T12:25:35.404Z,13.3
2022-11-15T12:29:42.701Z,13.4
2022-11-15T12:35:48.943Z,13.5
2022-11-15T12:37:51.001Z,13.2
2022-11-15T12:39:53.180Z,13.2
2022-11-15T12:48:04.629Z,13.2
2022-11-15T13:03:25.160Z,13.1
2022-11-15T13:05:27.254Z,13
2022-11-15T13:07:29.473Z,13
2022-11-15T13:09:31.410Z,13.1
2022-11-15T13:11:36.748Z,13.2
2022-11-15T13:15:43.126Z,13.2
2022-11-15T13:17:43.065Z,13.2
2022-11-15T13:19:45.141Z,13
2022-11-15T13:25:54.562Z,13.1
2022-11-15T13:27:56.643Z,13.1
2022-11-15T13:29:58.811Z,13.1
2022-11-15T13:34:02.956Z,13
2022-11-15T13:40:12.353Z,13
2022-11-15T13:42:14.416Z,13.1
2022-11-15T13:44:16.489Z,13
2022-11-15T13:54:56.678Z,13.1
2022-11-15T14:01:02.877Z,13.3
2022-11-15T14:03:04.916Z,13.2
2022-11-15T14:05:06.990Z,13.1
2022-11-15T14:07:12.260Z,13
2022-11-15T14:09:14.332Z,12.8
2022-11-15T14:15:20.541Z,12.7
2022-11-15T14:17:22.612Z,12.6
2022-11-15T14:19:24.652Z,12.6
2022-11-15T14:21:29.876Z,12.4
2022-11-15T14:23:31.960Z,12.5
2022-11-15T14:25:34.047Z,12.4
2022-11-15T14:27:36.231Z,12.3
2022-11-15T14:33:42.479Z,12.2
2022-11-15T14:37:49.956Z,12.2
2022-11-15T14:39:52.020Z,12.2
2022-11-15T14:49:06.403Z,11.9
2022-11-15T14:55:12.836Z,11.7
2022-11-15T14:59:16.979Z,11.8
2022-11-15T15:01:19.151Z,11.8
2022-11-15T15:03:24.576Z,11.8
2022-11-15T15:05:26.725Z,11.8
2022-11-15T15:07:29.695Z,11.8
2022-11-15T15:09:31.649Z,11.8
2022-11-15T15:11:33.818Z,11.7
2022-11-15T15:13:35.976Z,11.8
2022-11-15T15:15:38.160Z,11.8
2022-11-15T15:17:43.453Z,11.7
2022-11-15T15:19:45.554Z,11.7
2022-11-15T15:21:47.713Z,11.7
2022-11-15T15:23:49.898Z,11.7
2022-11-15T15:25:51.948Z,11.7
2022-11-15T15:27:54.124Z,11.7
2022-11-15T15:29:56.318Z,11.7
2022-11-15T15:32:01.719Z,11.6
2022-11-15T15:34:03.893Z,11.6
2022-11-15T15:36:06.072Z,11.6
2022-11-15T15:37:08.776Z,11.6
2022-11-15T15:41:13.128Z,11.6
2022-11-15T15:43:15.213Z,11.7
2022-11-15T15:47:22.812Z,11.6
2022-11-15T15:49:24.854Z,11.6
2022-11-15T15:51:27.043Z,11.6
2022-11-15T15:53:29.196Z,11.6
2022-11-15T15:55:31.266Z,11.6
2022-11-15T15:57:33.438Z,11.6
2022-11-15T15:59:38.730Z,11.6
2022-11-15T16:03:43.093Z,11.6
2022-11-15T16:05:45.293Z,11.6
2022-11-15T16:09:49.513Z,11.6
2022-11-15T16:11:51.705Z,11.5
2022-11-15T16:13:57.022Z,11.5
2022-11-15T16:15:59.188Z,11.6
2022-11-15T16:20:03.437Z,11.5
2022-11-15T16:22:05.633Z,11.5
2022-11-15T16:24:07.810Z,11.5
2022-11-15T16:26:09.872Z,11.6
2022-11-15T16:28:15.184Z,11.6
2022-11-15T16:32:19.587Z,11.5
2022-11-15T16:33:22.114Z,11.5
2022-11-15T16:35:24.194Z,11.5
2022-11-15T16:37:26.374Z,11.5
2022-11-15T16:39:28.535Z,11.5
2022-11-15T16:41:33.831Z,11.4
2022-11-15T16:43:36.005Z,11.5
2022-11-15T16:45:38.175Z,11.6
2022-11-15T16:47:40.255Z,11.6
2022-11-15T16:49:42.442Z,11.5
2022-11-15T16:51:44.602Z,11.5
2022-11-15T16:53:46.774Z,11.6
2022-11-15T16:55:52.190Z,11.5
2022-11-15T16:57:54.265Z,11.5
2022-11-15T16:59:56.349Z,11.5
2022-11-15T17:01:58.531Z,11.6
2022-11-15T17:06:02.786Z,11.5
2022-11-15T17:08:04.886Z,11.5
2022-11-15T17:10:10.095Z,11.6
2022-11-15T17:12:12.133Z,11.6
2022-11-15T17:14:14.216Z,11.7
2022-11-15T17:16:16.292Z,11.6
2022-11-15T17:20:20.657Z,11.7
2022-11-15T17:22:22.819Z,11.7
2022-11-15T17:28:32.411Z,11.7
2022-11-15T17:31:01.141Z,11.7
2022-11-15T17:33:03.315Z,11.7
2022-11-15T17:35:08.220Z,11.8
2022-11-15T17:37:10.612Z,11.8
2022-11-15T17:39:12.692Z,11.8
2022-11-15T17:41:14.765Z,11.7
2022-11-15T17:43:16.936Z,11.8
2022-11-15T17:45:19.028Z,11.7
2022-11-15T17:47:21.169Z,11.7
2022-11-15T17:49:23.260Z,11.7
2022-11-15T17:51:28.579Z,11.7
2022-11-15T17:53:30.668Z,11.6
2022-11-15T17:55:32.732Z,11.6
2022-11-15T17:57:34.920Z,11.5
2022-11-15T17:59:37.097Z,11.5
2022-11-15T18:01:39.189Z,11.6
2022-11-15T18:05:46.663Z,11.6
2022-11-15T18:11:53.093Z,11.6
2022-11-15T18:13:56.856Z,11.6
2022-11-15T18:15:58.958Z,11.7
2022-11-15T18:18:01.189Z,11.6
2022-11-15T18:20:06.349Z,11.6
2022-11-15T18:22:08.438Z,11.7
2022-11-15T18:24:10.656Z,11.6
2022-11-15T18:25:13.346Z,11.6
2022-11-15T18:27:15.468Z,11.6
2022-11-15T18:29:17.605Z,11.7
2022-11-15T18:31:19.791Z,11.5
2022-11-15T18:33:25.105Z,11.6
2022-11-15T18:35:27.186Z,11.6
2022-11-15T18:37:29.381Z,11.6
2022-11-15T18:39:31.425Z,11.6
2022-11-15T18:41:33.589Z,11.6
2022-11-15T18:43:35.927Z,11.6
2022-11-15T18:45:37.985Z,11.6
2022-11-15T18:47:43.422Z,11.6
2022-11-15T18:49:45.446Z,11.5
2022-11-15T18:51:47.528Z,11.5
2022-11-15T18:53:49.700Z,11.4
2022-11-15T18:55:51.884Z,11.4
2022-11-15T18:57:54.192Z,11.3
2022-11-15T18:59:56.218Z,11.3
2022-11-15T19:02:01.447Z,11.3
2022-11-15T19:04:03.512Z,11.3
2022-11-15T19:06:05.685Z,11.3
2022-11-15T19:08:07.965Z,11.3
2022-11-15T19:10:10.031Z,11.2
2022-11-15T19:12:12.112Z,11.2
2022-11-15T19:14:14.254Z,11.1
2022-11-15T19:16:19.585Z,11.1
2022-11-15T19:18:21.623Z,11.2
2022-11-15T19:20:23.805Z,11.2
2022-11-15T19:27:37.024Z,11.1
2022-11-15T19:33:42.593Z,11.1
2022-11-15T19:35:44.757Z,11.1
2022-11-15T19:37:46.932Z,11.1
2022-11-15T19:39:48.992Z,11
2022-11-15T19:41:51.042Z,11
2022-11-15T19:43:56.465Z,10.9
2022-11-15T19:48:00.812Z,10.9
2022-11-15T19:50:02.971Z,10.8
2022-11-15T19:52:05.125Z,10.9
2022-11-15T19:54:07.304Z,11
2022-11-15T19:56:09.460Z,10.9
2022-11-15T19:58:14.876Z,10.9
2022-11-15T20:00:17.022Z,10.9
2022-11-15T20:02:19.099Z,10.9
2022-11-15T20:08:25.511Z,10.9
2022-11-15T20:10:27.605Z,10.9
2022-11-15T20:12:33.038Z,10.9
2022-11-15T20:17:39.958Z,10.9
2022-11-15T20:19:42.135Z,10.8
2022-11-15T20:21:44.278Z,10.9
2022-11-15T20:23:47.268Z,10.8
2022-11-15T20:25:51.798Z,10.8
2022-11-15T20:27:53.862Z,10.8
2022-11-15T20:29:50.203Z,10.8
2022-11-15T20:31:52.327Z,10.8
2022-11-15T20:33:54.399Z,10.9
2022-11-15T20:35:56.579Z,10.9
2022-11-15T20:37:58.734Z,10.8
2022-11-15T20:40:04.138Z,10.7
2022-11-15T20:42:06.288Z,10.8
2022-11-15T20:44:08.457Z,10.9
2022-11-15T20:48:12.685Z,10.8
2022-11-15T20:50:40.508Z,10.9
2022-11-15T20:52:16.999Z,10.9
2022-11-15T20:54:22.422Z,10.8
2022-11-15T20:56:24.567Z,10.9
2022-11-15T20:58:26.630Z,10.8
2022-11-15T21:00:28.775Z,10.9
2022-11-15T21:02:31.055Z,10.9
2022-11-15T21:04:33.133Z,10.9
2022-11-15T21:06:35.280Z,10.8
2022-11-15T21:10:42.847Z,10.9
2022-11-15T21:12:44.900Z,10.9
2022-11-15T21:15:13.591Z,10.8
2022-11-15T21:17:15.776Z,10.8
2022-11-15T21:19:19.745Z,11
2022-11-15T21:21:23.243Z,10.8
2022-11-15T21:23:25.310Z,11
2022-11-15T21:25:27.488Z,10.9
2022-11-15T21:27:29.640Z,10.9
2022-11-15T21:29:31.800Z,10.9
2022-11-15T21:31:33.955Z,10.9
2022-11-15T21:33:36.130Z,10.9
2022-11-15T21:35:41.534Z,10.9
2022-11-15T21:37:43.599Z,10.9
2022-11-15T21:39:45.756Z,10.9
2022-11-15T21:41:47.911Z,10.9
2022-11-15T21:43:49.982Z,11
2022-11-15T21:45:52.034Z,11
2022-11-15T21:47:54.100Z,11
2022-11-15T21:49:59.509Z,11
2022-11-15T21:52:01.665Z,11.1
2022-11-15T21:54:03.840Z,11
2022-11-15T21:56:06.007Z,11
2022-11-15T21:58:08.169Z,10.9
2022-11-15T22:00:10.311Z,10.9
2022-11-15T22:02:12.385Z,11
2022-11-15T22:08:22.044Z,11
2022-11-15T22:09:24.764Z,11
2022-11-15T22:11:26.888Z,11
2022-11-15T22:13:29.072Z,11
2022-11-15T22:15:31.250Z,11
2022-11-15T22:17:36.628Z,11
2022-11-15T22:19:51.905Z,11.1
2022-11-15T22:21:40.885Z,11.2
2022-11-15T22:23:43.029Z,11.1
2022-11-15T22:25:45.214Z,11.1
2022-11-15T22:27:47.239Z,11
2022-11-15T22:29:49.399Z,11.1
2022-11-15T22:31:54.685Z,11
2022-11-15T22:33:56.786Z,11
2022-11-15T22:35:58.955Z,11
2022-11-15T22:38:01.120Z,11
2022-11-15T22:40:03.195Z,11.1
2022-11-15T22:42:05.347Z,11
2022-11-15T22:44:07.529Z,11
2022-11-15T22:46:12.932Z,11
2022-11-15T22:48:15.092Z,11
2022-11-15T22:50:17.261Z,11.1
2022-11-15T22:52:19.338Z,11
2022-11-15T22:54:21.502Z,11
2022-11-15T22:56:23.712Z,11
2022-11-15T22:58:25.870Z,11.1
2022-11-15T23:00:31.267Z,11
2022-11-15T23:02:33.425Z,11
2022-11-15T23:04:35.622Z,11
2022-11-15T23:05:38.303Z,11.1
2022-11-15T23:07:40.363Z,11
2022-11-15T23:09:45.333Z,11
2022-11-15T23:11:44.585Z,11
2022-11-15T23:13:50.002Z,11
2022-11-15T23:15:52.200Z,11.1
2022-11-15T23:17:54.319Z,11.1
2022-11-15T23:19:56.478Z,11.1
2022-11-15T23:21:58.644Z,11
2022-11-15T23:24:00.811Z,11.1
2022-11-15T23:26:02.995Z,11.1
2022-11-15T23:28:08.317Z,11.1
2022-11-15T23:30:10.442Z,11.1
2022-11-15T23:32:12.514Z,11.1
2022-11-15T23:34:18.490Z,11.1
2022-11-15T23:36:16.841Z,11.1
2022-11-15T23:38:19.016Z,11.1
2022-11-15T23:40:21.179Z,11.1
2022-11-15T23:42:26.488Z,11.2
2022-11-15T23:44:28.630Z,11.2
2022-11-15T23:46:30.688Z,11.2
2022-11-15T23:48:33.078Z,11.2
2022-11-15T23:50:35.054Z,11.2
2022-11-15T23:52:37.220Z,11.2
2022-11-15T23:54:39.400Z,11.2
2022-11-15T23:56:44.780Z,11.2
2022-11-15T23:58:46.877Z,11.2
